x

La Mancha Beach, Mexico (lmbv4) Weather Station

3:00pm - Sun 4th Dec 2016 All times are CST. -6 hours from GMT.

  • Wind
    6mph, 10mph gusts
  • Air Temp 80°f
  • Sea Pressure 1005.8mb
  • La Mancha Beach, Mexico
  • La Mancha Beach, Mexico

More Historic Weather Station data

Upgrade to MSW Pro to gain access to the past 30 days of data for over 8000 Wavebouys and Weather Stations around the globe.

Join Pro

Comparision Forecast

View Surf forecast
   
Sun 12/04 3:00pm 6 10 mph 1005.8mb 80f
2:00pm 6 7 mph 1005.8mb 79f
1:00pm 6 7 mph 1006.4mb 79f
12:00pm 5 6 mph 1007.6mb 79f
11:00am 6 7 mph 1008.5mb 78f
10:00am 7
mph
1008.9mb 79f
9:00am 5 6 mph 1008.4mb 79f
8:00am 2
mph
1007.4mb 73f
7:00am 3 5 mph 1006.9mb 73f
6:00am 2
mph
1006.8mb 75f
5:00am 2
mph
1006.7mb 77f
4:00am 5 7 mph 1006.5mb 78f
3:00am 5 7 mph 1006.6mb 79f
2:00am 3 5 mph 1006.9mb 78f
1:00am 3 7 mph 1007.4mb 78f
12:00am 8 11 mph 1007.8mb 78f
Sat 12/03 11:00pm 7 10 mph 1008.2mb 78f
10:00pm 3 7 mph 1008mb 78f
9:00pm 7 10 mph 1008.3mb 78f
8:00pm 5 7 mph 1008mb 78f
7:00pm 3 6 mph 1007.4mb 79f
6:00pm 3 6 mph 1007.1mb 79f
5:00pm 8 9 mph 1006.7mb 79f
4:00pm 10 11 mph 1006.5mb 80f
3:00pm 14 16 mph 1006.6mb 80f
2:00pm 15 17 mph 1007.4mb 80f
1:00pm 15 20 mph 1008.5mb 82f
12:00pm 15 18 mph 1010.1mb 80f
11:00am 9 16 mph 1011.2mb 81f
10:00am 10 13 mph 1012.2mb 80f
9:00am 8 10 mph 1012.4mb 78f
8:00am 3 7 mph 1011.7mb 77f
7:00am 3 6 mph 1011.2mb 76f
6:00am 5 9 mph 1011.2mb 76f
5:00am 5 6 mph 1010.9mb 76f
4:00am 6 10 mph 1010.9mb 76f
3:00am 5 8 mph 1011.2mb 76f
2:00am 5 7 mph 1011.5mb 76f
1:00am 5 7 mph 1012mb 77f
12:00am 6 8 mph 1012.1mb 76f
Fri 12/02 11:00pm 5 7 mph 1012.4mb 76f
10:00pm 6 9 mph 1012.6mb 77f
9:00pm 3 7 mph 1012.5mb 76f
8:00pm 3 5 mph 1012mb 76f
7:00pm 3 6 mph 1011.6mb 78f
6:00pm 14 15 mph 1010.9mb 79f
5:00pm 14 16 mph 1010.8mb 79f
4:00pm 15 18 mph 1010.4mb 79f
3:00pm 17 20 mph 1010.5mb 79f
2:00pm 16 17 mph 1011.2mb 79f
1:00pm 18 21 mph 1012mb 79f
12:00pm 18 21 mph 1013.2mb 78f
11:00am 14 18 mph 1014.3mb 81f
10:00am 10 13 mph 1014.8mb 80f
9:00am 7 11 mph 1015.3mb 78f
8:00am 6 8 mph 1014.7mb 76f
7:00am 3 5 mph 1014mb 73f
6:00am 1 2 mph 1013.9mb 74f
5:00am  -  mph 1013.2mb 74f
4:00am 2 3 mph 1013.1mb 74f
3:00am 2 3 mph 1013.2mb 74f
2:00am  -  1 mph 1013.6mb 74f
1:00am 1
mph
1013.9mb 74f
12:00am  -  2 mph 1014.3mb 75f
Thu 12/01 11:00pm  -  mph 1014.6mb 74f
10:00pm 3
mph
1014.7mb 74f
9:00pm 2 3 mph 1014.4mb 74f
8:00pm 5 7 mph 1013.8mb 75f
7:00pm 2 3 mph 1013.3mb 73f
6:00pm 8 10 mph 1012.8mb 75f
5:00pm 11 17 mph 1012.4mb 76f
4:00pm 14 20 mph 1012mb 78f
3:00pm 11 18 mph 1012.1mb 79f
2:00pm 15 20 mph 1012.5mb 80f
1:00pm 10 17 mph 1013.2mb 81f
11:00am 3 7 mph 1015.2mb 81f
10:00am 2 3 mph 1015.8mb 79f
9:00am 2
mph
1015.8mb 78f
8:00am 2
mph
1015.3mb 75f
7:00am 2 3 mph 1014.6mb 74f
6:00am 2
mph
1014.1mb 74f
5:00am 1 2 mph 1013.7mb 75f
4:00am 3
mph
1013.4mb 75f
3:00am 2
mph
1013.5mb 75f
2:00am 2
mph
1013.9mb 75f
1:00am 3 5 mph 1014.3mb 75f
12:00am 3 5 mph 1014.6mb 77f
Wed 11/30 11:00pm 5 9 mph 1014.7mb 76f